4XCWH LLHZ-LLHZ

Flight info

Callsign 4XCWH
Flight time 0h 12m
Altitude 800
Route CVFR
Aircraft C172/L-VD/A

Departure

Time 2026-04-12 14:53
Airport Herzliya Airport (LLHZ)

Arrival

Time 2026-04-12 15:05
Airport Herzliya Airport (LLHZ)
Time Latitude Longitude Altitude Speed Heading
2026-04-12 14:45 32.17881 34.83779 120 ft 0 kts 110°
2026-04-12 14:48 32.17881 34.83783 120 ft 5 kts 88°
2026-04-12 14:48 32.17891 34.83821 120 ft 0 kts 64°
2026-04-12 14:48 32.17924 34.83819 124 ft 9 kts 283°
2026-04-12 14:49 32.17969 34.83666 115 ft 42 kts 289°
2026-04-12 14:49 32.18068 34.83270 199 ft 60 kts 283°
2026-04-12 14:50 32.18084 34.83178 207 ft 65 kts 281°
2026-04-12 14:50 32.18225 34.82629 286 ft 59 kts 295°
2026-04-12 14:51 32.18246 34.82787 333 ft 0 kts 355°
2026-04-12 14:52 32.18741 34.82854 584 ft 94 kts 17°
2026-04-12 14:53 32.19333 34.83231 675 ft 108 kts 50°
2026-04-12 14:53 32.19264 34.84155 701 ft 122 kts 111°
2026-04-12 14:53 32.19057 34.84760 799 ft 123 kts 115°
2026-04-12 14:53 32.18800 34.85382 939 ft 116 kts 133°
2026-04-12 14:54 32.18130 34.85569 919 ft 106 kts 195°
2026-04-12 14:54 32.17500 34.85274 668 ft 84 kts 259°
2026-04-12 14:54 32.17655 34.84689 409 ft 63 kts 292°
2026-04-12 14:54 32.17798 34.84222 268 ft 62 kts 288°
2026-04-12 14:55 32.17941 34.83751 124 ft 53 kts 287°
2026-04-12 14:55 32.18058 34.83322 166 ft 55 kts 287°
2026-04-12 14:55 32.18203 34.82842 244 ft 71 kts 292°
2026-04-12 14:55 32.18689 34.82766 342 ft 95 kts 16°
2026-04-12 14:56 32.19276 34.83064 630 ft 90 kts 18°
2026-04-12 14:56 32.19469 34.83798 640 ft 119 kts 107°
2026-04-12 14:56 32.19141 34.84740 683 ft 122 kts 117°
2026-04-12 14:56 32.18786 34.85536 669 ft 100 kts 143°
2026-04-12 14:57 32.18157 34.85501 628 ft 90 kts 206°
2026-04-12 14:57 32.17560 34.85188 545 ft 91 kts 245°
2026-04-12 14:57 32.17692 34.84557 365 ft 72 kts 292°
2026-04-12 14:57 32.17842 34.84073 199 ft 61 kts 290°
2026-04-12 14:58 32.17985 34.83588 110 ft 64 kts 289°
2026-04-12 14:58 32.18125 34.83105 221 ft 70 kts 289°
2026-04-12 14:58 32.18383 34.82613 419 ft 80 kts 346°
2026-04-12 14:58 32.19022 34.82813 463 ft 102 kts 14°
2026-04-12 14:59 32.19461 34.83436 538 ft 121 kts 103°
2026-04-12 14:59 32.19129 34.84369 562 ft 120 kts 118°
2026-04-12 14:59 32.18808 34.85206 580 ft 102 kts 113°
2026-04-12 14:59 32.18323 34.85580 512 ft 87 kts 190°
2026-04-12 15:00 32.17458 34.85057 409 ft 71 kts 296°
2026-04-12 15:00 32.17680 34.84595 311 ft 56 kts 293°
2026-04-12 15:00 32.17818 34.84139 213 ft 64 kts 290°
2026-04-12 15:01 32.17963 34.83670 116 ft 53 kts 289°
2026-04-12 15:01 32.18098 34.83205 156 ft 69 kts 287°
2026-04-12 15:01 32.18410 34.82767 334 ft 83 kts 357°
2026-04-12 15:01 32.19014 34.82956 492 ft 93 kts 11°
2026-04-12 15:02 32.19333 34.83597 589 ft 115 kts 105°
2026-04-12 15:02 32.19021 34.84536 637 ft 127 kts 115°
2026-04-12 15:02 32.18519 34.85311 787 ft 111 kts 167°
2026-04-12 15:02 32.17784 34.85321 642 ft 105 kts 197°
2026-04-12 15:03 32.17637 34.84754 395 ft 80 kts 288°
2026-04-12 15:03 32.17797 34.84229 241 ft 62 kts 286°
2026-04-12 15:03 32.17932 34.83774 124 ft 59 kts 290°
2026-04-12 15:03 32.18068 34.83318 101 ft 71 kts 289°
2026-04-12 15:04 32.18269 34.82767 326 ft 74 kts 317°
2026-04-12 15:04 32.18827 34.82845 389 ft 98 kts 17°
2026-04-12 15:04 32.19281 34.83443 494 ft 114 kts 97°
2026-04-12 15:04 32.19014 34.84366 528 ft 119 kts 113°
2026-04-12 15:05 32.18466 34.84846 561 ft 99 kts 197°
2026-04-12 15:05 32.17804 34.84621 419 ft 78 kts 236°
2026-04-12 15:05 32.17816 34.84154 213 ft 53 kts 291°
2026-04-12 15:05 32.17929 34.83773 138 ft 46 kts 289°
2026-04-12 15:06 32.18052 34.83346 218 ft 63 kts 289°
2026-04-12 15:06 32.18251 34.82870 398 ft 70 kts 324°
2026-04-12 15:06 32.18796 34.82843 568 ft 82 kts
2026-04-12 15:06 32.19325 34.83083 805 ft 83 kts 15°
2026-04-12 15:07 32.19886 34.83389 878 ft 97 kts 17°
2026-04-12 15:07 32.20261 34.83972 1119 ft 105 kts 94°
2026-04-12 15:07 32.19921 34.84832 963 ft 131 kts 120°
2026-04-12 15:07 32.19431 34.85684 777 ft 114 kts 146°
2026-04-12 15:08 32.18756 34.85660 604 ft 101 kts 203°
2026-04-12 15:08 32.18127 34.85390 494 ft 93 kts 203°
2026-04-12 15:08 32.17548 34.85144 531 ft 81 kts 236°
2026-04-12 15:08 32.17672 34.84587 371 ft 73 kts 291°
2026-04-12 15:09 32.17849 34.84064 208 ft 66 kts 287°
2026-04-12 15:09 32.17975 34.83625 112 ft 57 kts 290°
2026-04-12 15:09 32.18142 34.83062 194 ft 78 kts 288°
2026-04-12 15:09 32.18496 34.82637 331 ft 93 kts
2026-04-12 15:10 32.19161 34.82933 431 ft 105 kts 19°
2026-04-12 15:10 32.19189 34.83746 538 ft 117 kts 106°
2026-04-12 15:10 32.18959 34.84706 640 ft 127 kts 106°
2026-04-12 15:10 32.18609 34.85530 800 ft 99 kts 162°
2026-04-12 15:11 32.17974 34.85453 665 ft 93 kts 202°
2026-04-12 15:11 32.17591 34.85019 485 ft 82 kts 274°
2026-04-12 15:11 32.17765 34.84400 286 ft 75 kts 291°
2026-04-12 15:11 32.17901 34.83882 143 ft 65 kts 285°
2026-04-12 15:12 32.18037 34.83415 106 ft 54 kts 290°
2026-04-12 15:12 32.18186 34.82897 190 ft 74 kts 288°
2026-04-12 15:12 32.18563 34.82728 422 ft 80 kts 27°
2026-04-12 15:12 32.19111 34.83062 497 ft 95 kts 14°
2026-04-12 15:13 32.19314 34.83733 651 ft 109 kts 106°
2026-04-12 15:13 32.19052 34.84606 731 ft 113 kts 112°
2026-04-12 15:13 32.18739 34.85432 774 ft 106 kts 143°
2026-04-12 15:13 32.18120 34.85383 723 ft 95 kts 201°
2026-04-12 15:14 32.17650 34.84986 582 ft 79 kts 264°
2026-04-12 15:14 32.17733 34.84418 327 ft 60 kts 291°
2026-04-12 15:14 32.17868 34.84004 164 ft 55 kts 288°
2026-04-12 15:14 32.17995 34.83560 109 ft 58 kts 289°
2026-04-12 15:15 32.18155 34.83028 264 ft 67 kts 288°
2026-04-12 15:15 32.18534 34.82813 439 ft 83 kts
2026-04-12 15:15 32.19110 34.83009 632 ft 88 kts 11°
2026-04-12 15:15 32.19306 34.83687 680 ft 114 kts 107°
2026-04-12 15:16 32.19022 34.84610 786 ft 123 kts 112°
2026-04-12 15:16 32.18698 34.85471 826 ft 105 kts 141°
2026-04-12 15:16 32.18081 34.85457 728 ft 97 kts 195°
2026-04-12 15:16 32.17483 34.85168 734 ft 84 kts 263°
2026-04-12 15:17 32.17685 34.84527 429 ft 75 kts 295°
2026-04-12 15:17 32.17853 34.84045 199 ft 56 kts 289°
2026-04-12 15:17 32.17991 34.83594 110 ft 53 kts 288°
2026-04-12 15:17 32.18133 34.83116 147 ft 72 kts 288°
2026-04-12 15:18 32.18427 34.82727 386 ft 78 kts
2026-04-12 15:18 32.18995 34.82961 456 ft 96 kts 14°
2026-04-12 15:18 32.19372 34.83493 633 ft 106 kts 109°
2026-04-12 15:18 32.19044 34.84331 739 ft 119 kts 118°
2026-04-12 15:19 32.18663 34.85193 936 ft 111 kts 121°
2026-04-12 15:19 32.18066 34.85309 904 ft 102 kts 201°
2026-04-12 15:19 32.17545 34.84886 742 ft 85 kts 279°
2026-04-12 15:19 32.17760 34.84285 346 ft 69 kts 295°
2026-04-12 15:20 32.17918 34.83828 123 ft 53 kts 290°
2026-04-12 15:20 32.18032 34.83406 166 ft 63 kts 288°
2026-04-12 15:20 32.18155 34.83015 308 ft 68 kts 292°
2026-04-12 15:20 32.18290 34.82791 392 ft 73 kts 344°
2026-04-12 15:21 32.18808 34.82956 583 ft 87 kts 13°
2026-04-12 15:21 32.19320 34.83396 661 ft 108 kts 84°
2026-04-12 15:21 32.19118 34.84297 774 ft 120 kts 111°
2026-04-12 15:21 32.18808 34.85175 849 ft 105 kts 123°
2026-04-12 15:22 32.18207 34.85353 702 ft 93 kts 194°
2026-04-12 15:22 32.17607 34.85150 588 ft 83 kts 227°
2026-04-12 15:22 32.17638 34.84606 437 ft 67 kts 297°
2026-04-12 15:22 32.17813 34.84155 221 ft 57 kts 290°
2026-04-12 15:23 32.17956 34.83704 120 ft 56 kts 292°
2026-04-12 15:23 32.18098 34.83235 136 ft 71 kts 287°
2026-04-12 15:23 32.18342 34.82768 406 ft 73 kts 347°
2026-04-12 15:23 32.18773 34.82942 453 ft 95 kts 15°
2026-04-12 15:24 32.19064 34.83102 494 ft 100 kts 20°
2026-04-12 15:24 32.19243 34.83834 680 ft 113 kts 109°
2026-04-12 15:24 32.18985 34.84750 807 ft 115 kts 111°
2026-04-12 15:25 32.18642 34.85500 860 ft 97 kts 164°
2026-04-12 15:25 32.18002 34.85393 816 ft 101 kts 192°
2026-04-12 15:25 32.17448 34.85030 839 ft 85 kts 274°
2026-04-12 15:25 32.17638 34.84610 628 ft 86 kts 297°
2026-04-12 15:26 32.17843 34.84046 240 ft 68 kts 292°
2026-04-12 15:26 32.17993 34.83602 119 ft 52 kts 287°
2026-04-12 15:26 32.18141 34.83111 221 ft 71 kts 293°
2026-04-12 15:26 32.18485 34.82824 488 ft 80 kts 10°
2026-04-12 15:27 32.19060 34.83099 615 ft 87 kts 16°
2026-04-12 15:27 32.19339 34.83690 755 ft 107 kts 107°
2026-04-12 15:27 32.19065 34.84575 833 ft 116 kts 110°
2026-04-12 15:27 32.18735 34.85381 863 ft 107 kts 135°
2026-04-12 15:28 32.18082 34.85412 776 ft 106 kts 199°
2026-04-12 15:28 32.17589 34.84968 619 ft 87 kts 277°
2026-04-12 15:28 32.17750 34.84359 361 ft 68 kts 292°
2026-04-12 15:28 32.17902 34.83882 144 ft 59 kts 288°
2026-04-12 15:29 32.18024 34.83479 104 ft 32 kts 289°
2026-04-12 15:29 32.18058 34.83339 101 ft 7 kts 230°
2026-04-12 15:29 32.18040 34.83326 103 ft 3 kts 213°
2026-04-12 15:29 32.18019 34.83319 103 ft 3 kts 199°
2026-04-12 15:30 32.18018 34.83319 103 ft 0 kts 198°